Time;durP1;ratioP1;P1;durP2;ratioP2;P2;SDS_P1;SDS_P2;PMS_P1;PMS_P2;Temp;Humidity;BMP_temperature;BMP_pressure;BME280_temperature;BME280_humidity;BME280_pressure;Samples;Min_cycle;Max_cycle;Signal;HPM_P1;HPM_P2
2021/11/11 00:00:08;;;;;;;12.23;9.07;;;13.40;81.30;;;;;;5158514;27;20073;-56
2021/11/11 00:02:34;;;;;;;8.88;7.85;;;13.40;81.30;;;;;;5158049;27;20546;-56
2021/11/11 00:05:00;;;;;;;10.48;9.10;;;13.40;81.30;;;;;;5158002;27;20039;-55
2021/11/11 00:07:26;;;;;;;12.10;9.68;;;13.40;81.30;;;;;;5157984;27;20394;-56
2021/11/11 00:09:52;;;;;;;11.88;9.07;;;13.40;81.30;;;;;;5157623;27;20050;-56
2021/11/11 00:12:17;;;;;;;9.80;8.00;;;13.40;81.30;;;;;;5157662;27;20768;-55
2021/11/11 00:14:43;;;;;;;10.70;8.95;;;13.40;81.30;;;;;;5157832;27;20049;-56
2021/11/11 00:17:09;;;;;;;9.48;8.48;;;13.40;81.30;;;;;;5139282;27;20050;-56
2021/11/11 00:19:34;;;;;;;11.63;9.32;;;13.40;81.30;;;;;;5158003;27;20061;-55
2021/11/11 00:22:00;;;;;;;9.60;8.25;;;13.40;81.30;;;;;;5157636;27;20074;-55
2021/11/11 00:24:26;;;;;;;9.98;8.80;;;13.40;81.30;;;;;;5157210;27;20035;-55
2021/11/11 00:26:51;;;;;;;10.27;8.65;;;13.40;81.30;;;;;;5157126;27;20045;-56
2021/11/11 00:29:17;;;;;;;10.75;8.27;;;13.40;81.30;;;;;;5157904;27;20444;-56
2021/11/11 00:31:43;;;;;;;10.13;8.40;;;13.40;81.30;;;;;;5139239;27;20053;-54
2021/11/11 00:34:08;;;;;;;9.70;8.15;;;13.40;81.30;;;;;;5157716;27;20107;-56
2021/11/11 00:36:34;;;;;;;11.90;9.23;;;13.30;81.20;;;;;;5157005;27;20050;-56
2021/11/11 00:39:01;;;;;;;11.10;8.60;;;13.40;81.30;;;;;;5121305;27;20043;-56
2021/11/11 00:41:30;;;;;;;10.90;8.85;;;13.40;81.30;;;;;;5157369;27;20038;-57
2021/11/11 00:43:56;;;;;;;9.82;8.32;;;13.50;81.30;;;;;;5139412;27;20042;-55
2021/11/11 00:46:22;;;;;;;9.98;8.55;;;13.40;81.30;;;;;;5157042;27;20038;-54
2021/11/11 00:48:48;;;;;;;9.60;7.70;;;13.40;81.30;;;;;;5157223;27;20121;-56
2021/11/11 00:51:13;;;;;;;10.38;7.93;;;13.40;81.20;;;;;;5157027;27;20034;-56
2021/11/11 00:53:39;;;;;;;9.63;7.90;;;13.40;81.20;;;;;;5157358;27;20046;-56
2021/11/11 00:56:05;;;;;;;10.70;8.20;;;13.40;81.20;;;;;;5138099;27;20046;-57
2021/11/11 00:58:30;;;;;;;10.48;8.60;;;13.40;81.20;;;;;;5156832;27;20047;-56
2021/11/11 01:00:56;;;;;;;10.85;8.35;;;13.30;81.10;;;;;;5156950;27;20042;-55
2021/11/11 01:03:30;;;;;;;10.15;8.38;;;13.30;81.20;;;;;;5156803;27;20077;-54
2021/11/11 01:05:56;;;;;;;10.80;8.48;;;13.40;81.20;;;;;;5156455;27;20046;-56
2021/11/11 01:08:23;;;;;;;10.35;8.10;;;13.40;81.20;;;;;;5156532;27;20049;-55
2021/11/11 01:10:49;;;;;;;11.07;7.70;;;13.40;81.20;;;;;;5156472;27;20118;-54
2021/11/11 01:13:14;;;;;;;9.82;8.27;;;13.40;81.20;;;;;;5156328;27;20183;-56
2021/11/11 01:15:40;;;;;;;9.73;7.60;;;13.30;81.10;;;;;;5138048;27;20174;-56
2021/11/11 01:18:06;;;;;;;9.38;7.30;;;13.40;81.20;;;;;;5137807;27;20129;-54
2021/11/11 01:20:33;;;;;;;8.32;7.30;;;13.40;81.20;;;;;;5156758;27;20042;-55
2021/11/11 01:22:58;;;;;;;9.65;7.97;;;13.50;81.20;;;;;;5156820;27;20071;-55
2021/11/11 01:25:28;;;;;;;9.32;7.40;;;13.40;81.20;;;;;;5156461;27;20043;-56
2021/11/11 01:27:54;;;;;;;8.38;7.45;;;13.40;81.20;;;;;;5156081;27;20061;-57
2021/11/11 01:30:20;;;;;;;9.27;7.30;;;13.50;81.20;;;;;;5156239;27;20046;-55
2021/11/11 01:32:46;;;;;;;10.20;7.53;;;13.40;81.10;;;;;;5156331;27;20041;-55
2021/11/11 01:35:13;;;;;;;8.68;6.32;;;13.40;81.10;;;;;;5156576;27;20547;-56
2021/11/11 01:37:39;;;;;;;8.65;6.75;;;13.40;81.10;;;;;;5156316;27;20118;-57
2021/11/11 01:40:06;;;;;;;8.93;7.18;;;13.40;81.10;;;;;;5137138;27;20085;-56
2021/11/11 01:42:46;;;;;;;8.18;7.10;;;13.40;81.10;;;;;;5155767;27;20047;-57
2021/11/11 01:45:13;;;;;;;9.35;7.53;;;13.40;81.10;;;;;;5137611;27;20047;-53
2021/11/11 01:47:39;;;;;;;9.25;7.75;;;13.40;81.10;;;;;;5156078;27;20035;-56
2021/11/11 01:50:06;;;;;;;8.80;7.25;;;13.40;81.10;;;;;;5155682;27;20113;-52
2021/11/11 01:52:32;;;;;;;9.00;7.35;;;13.40;81.10;;;;;;5156106;27;20428;-54
2021/11/11 01:54:59;;;;;;;9.07;7.05;;;13.40;81.10;;;;;;5137330;27;20035;-56
2021/11/11 01:57:25;;;;;;;9.57;7.32;;;13.40;81.10;;;;;;5155768;27;20180;-56
2021/11/11 01:59:52;;;;;;;8.80;6.68;;;13.40;81.10;;;;;;5155601;27;20085;-55
2021/11/11 02:02:29;;;;;;;8.65;7.10;;;13.40;81.00;;;;;;5155520;27;20046;-56
2021/11/11 02:04:56;;;;;;;9.48;7.05;;;13.40;81.00;;;;;;5136916;27;20083;-56
2021/11/11 02:07:22;;;;;;;9.18;6.95;;;13.40;81.10;;;;;;5137311;27;20077;-56
2021/11/11 02:09:50;;;;;;;9.10;7.03;;;13.40;81.10;;;;;;5136692;27;20046;-55
2021/11/11 02:12:16;;;;;;;9.63;7.72;;;13.40;81.00;;;;;;5155239;27;20039;-56
2021/11/11 02:14:43;;;;;;;8.57;7.10;;;13.40;81.00;;;;;;5135947;27;20486;-57
2021/11/11 02:17:09;;;;;;;7.68;6.80;;;13.40;81.00;;;;;;5136015;27;20483;-56
2021/11/11 02:19:35;;;;;;;7.80;6.70;;;13.40;81.00;;;;;;5155430;27;20049;-55
2021/11/11 02:22:04;;;;;;;9.13;7.28;;;13.40;81.00;;;;;;5136364;27;20074;-52
2021/11/11 02:24:32;;;;;;;8.32;6.47;;;13.40;81.00;;;;;;5134763;27;20162;-54
2021/11/11 02:26:57;;;;;;;8.98;6.57;;;13.40;81.00;;;;;;5134812;27;20104;-56
2021/11/11 02:29:24;;;;;;;8.73;6.38;;;13.40;81.00;;;;;;5134674;27;20043;-55
2021/11/11 02:31:49;;;;;;;8.18;6.88;;;13.50;81.10;;;;;;5134132;27;20043;-56
2021/11/11 02:34:18;;;;;;;8.50;6.57;;;13.40;81.00;;;;;;5149362;27;20038;-56
2021/11/11 02:37:03;;;;;;;7.95;6.85;;;13.40;81.00;;;;;;5155435;27;20038;-56
2021/11/11 02:39:33;;;;;;;8.32;7.05;;;13.50;81.00;;;;;;5155201;27;20865;-57
2021/11/11 02:42:00;;;;;;;7.78;6.38;;;13.40;81.00;;;;;;5155157;27;20133;-55
2021/11/11 02:44:28;;;;;;;9.43;7.20;;;13.40;81.00;;;;;;5136373;27;20043;-56
2021/11/11 02:46:56;;;;;;;9.88;6.90;;;13.40;81.00;;;;;;5154788;27;20047;-56
2021/11/11 02:49:22;;;;;;;8.55;6.50;;;13.40;81.60;;;;;;5154883;27;20039;-56
2021/11/11 02:51:48;;;;;;;8.60;7.10;;;13.40;80.90;;;;;;5154829;27;20080;-55
2021/11/11 02:54:13;;;;;;;8.10;6.88;;;13.40;80.90;;;;;;5154644;27;20485;-55
2021/11/11 02:56:39;;;;;;;9.63;6.45;;;13.50;81.00;;;;;;5154796;27;20074;-55
2021/11/11 02:59:05;;;;;;;7.05;6.18;;;13.50;81.00;;;;;;5154742;27;20050;-56
2021/11/11 03:01:32;;;;;;;8.82;6.95;;;13.40;80.90;;;;;;5154446;27;20039;-56
2021/11/11 03:03:58;;;;;;;9.38;6.93;;;13.50;80.90;;;;;;5154381;27;20060;-56
2021/11/11 03:06:23;;;;;;;8.70;6.80;;;13.40;80.90;;;;;;5136021;27;20081;-57
2021/11/11 03:08:49;;;;;;;7.47;6.50;;;13.40;80.90;;;;;;5154406;27;20051;-55
2021/11/11 03:11:15;;;;;;;8.93;6.60;;;13.50;80.90;;;;;;5154612;27;20114;-56
2021/11/11 03:13:41;;;;;;;9.32;6.20;;;13.40;80.90;;;;;;5154348;27;20099;-54
2021/11/11 03:16:06;;;;;;;7.85;6.50;;;13.40;80.90;;;;;;5154478;27;20038;-57
2021/11/11 03:18:32;;;;;;;7.68;6.05;;;13.50;80.90;;;;;;5154079;27;20078;-58
2021/11/11 03:20:59;;;;;;;7.40;6.20;;;13.40;80.90;;;;;;5154853;27;20079;-58
2021/11/11 03:23:25;;;;;;;7.65;6.63;;;13.50;80.90;;;;;;5154382;27;20047;-55
2021/11/11 03:25:51;;;;;;;8.68;6.18;;;13.50;80.90;;;;;;5154364;27;20043;-54
2021/11/11 03:28:16;;;;;;;7.93;6.47;;;13.40;80.90;;;;;;5139858;27;20078;-58
2021/11/11 03:30:43;;;;;;;8.65;6.55;;;13.50;80.90;;;;;;5158770;27;20034;-58
2021/11/11 03:33:09;;;;;;;8.48;6.53;;;13.40;80.80;;;;;;5158512;27;20048;-55
2021/11/11 03:35:35;;;;;;;8.57;6.75;;;13.40;80.80;;;;;;5158386;27;20043;-56
2021/11/11 03:38:04;;;;;;;7.53;5.97;;;13.40;80.80;;;;;;5158601;27;20039;-55
2021/11/11 03:40:34;;;;;;;7.78;6.40;;;13.40;80.80;;;;;;5158327;27;20050;-56
2021/11/11 03:43:01;;;;;;;7.07;6.03;;;13.40;80.90;;;;;;5139802;27;20095;-57
2021/11/11 03:45:28;;;;;;;7.07;6.00;;;13.50;80.90;;;;;;5158530;27;20047;-57
2021/11/11 03:47:54;;;;;;;7.32;6.05;;;13.50;80.90;;;;;;5158312;27;20031;-58
2021/11/11 03:50:20;;;;;;;8.55;6.00;;;13.40;80.80;;;;;;5139542;27;20171;-54
2021/11/11 03:52:48;;;;;;;8.20;5.80;;;13.40;80.80;;;;;;5158515;27;20047;-56
2021/11/11 03:55:16;;;;;;;7.85;6.05;;;13.40;80.80;;;;;;5158434;27;20065;-58
2021/11/11 03:57:42;;;;;;;6.60;5.55;;;13.50;80.80;;;;;;5139385;27;20042;-56
2021/11/11 04:00:11;;;;;;;7.93;5.72;;;13.40;80.80;;;;;;5158364;27;20035;-56
2021/11/11 04:02:36;;;;;;;9.20;6.57;;;13.40;80.80;;;;;;5158305;27;20125;-56
2021/11/11 04:05:03;;;;;;;7.45;5.57;;;13.40;80.80;;;;;;5158047;27;20069;-56
2021/11/11 04:07:29;;;;;;;6.47;5.32;;;13.40;80.80;;;;;;5157827;27;20456;-56
2021/11/11 04:09:55;;;;;;;6.65;5.63;;;13.40;80.80;;;;;;5157760;27;20030;-55
2021/11/11 04:12:21;;;;;;;7.82;5.30;;;13.50;80.80;;;;;;5157902;27;20047;-56
2021/11/11 04:14:47;;;;;;;7.75;6.25;;;13.40;80.80;;;;;;5158204;27;20084;-55
2021/11/11 04:17:12;;;;;;;6.97;5.93;;;13.40;80.70;;;;;;5157725;27;20079;-55
2021/11/11 04:19:38;;;;;;;7.18;5.80;;;13.40;80.70;;;;;;5157542;27;20043;-58
2021/11/11 04:22:05;;;;;;;7.72;6.40;;;13.50;80.80;;;;;;5157117;27;20042;-56
2021/11/11 04:24:31;;;;;;;10.00;5.97;;;13.40;80.70;;;;;;5157500;27;20360;-56
2021/11/11 04:27:02;;;;;;;8.27;5.97;;;13.40;80.70;;;;;;5158011;27;20387;-56
2021/11/11 04:29:31;;;;;;;7.07;5.18;;;13.40;80.70;;;;;;5139077;27;20473;-57
2021/11/11 04:31:59;;;;;;;6.95;5.32;;;13.40;80.80;;;;;;5157215;27;20056;-57
2021/11/11 04:34:27;;;;;;;7.10;5.70;;;13.40;80.70;;;;;;5157598;27;20430;-58
2021/11/11 04:40:00;;;;;;;7.93;6.38;;;13.40;80.70;;;;;;5157516;27;20143;-57
2021/11/11 04:52:47;;;;;;;7.03;5.43;;;13.40;80.70;;;;;;5156462;27;20049;-57
2021/11/11 05:05:48;;;;;;;6.88;5.70;;;13.40;80.70;;;;;;5157014;27;20051;-56
2021/11/11 05:08:14;;;;;;;8.23;5.97;;;13.40;80.70;;;;;;5156701;27;20094;-57
2021/11/11 05:10:40;;;;;;;7.85;5.47;;;13.50;80.70;;;;;;5138046;27;20038;-59
2021/11/11 05:13:06;;;;;;;6.05;5.30;;;13.40;80.70;;;;;;5156238;27;20051;-56
2021/11/11 05:15:32;;;;;;;6.68;5.38;;;13.50;80.70;;;;;;5156721;27;20050;-56
2021/11/11 05:17:57;;;;;;;6.97;5.22;;;13.50;80.70;;;;;;5156511;27;20467;-56
2021/11/11 05:20:23;;;;;;;8.05;5.43;;;13.50;80.70;;;;;;5156903;27;20058;-57
2021/11/11 05:22:49;;;;;;;5.80;4.70;;;13.40;80.70;;;;;;5156859;27;20045;-56
2021/11/11 05:25:16;;;;;;;6.65;5.07;;;13.50;80.70;;;;;;5155732;27;20539;-55
2021/11/11 05:27:44;;;;;;;6.55;4.80;;;13.50;80.70;;;;;;5156264;27;20062;-57
2021/11/11 05:30:14;;;;;;;9.60;5.75;;;13.40;80.70;;;;;;5156761;27;20042;-57
2021/11/11 05:32:39;;;;;;;7.07;5.13;;;13.50;80.70;;;;;;5156288;27;20042;-57
2021/11/11 05:35:08;;;;;;;6.88;5.38;;;13.50;80.70;;;;;;5156278;27;20376;-57
2021/11/11 05:37:35;;;;;;;7.60;5.80;;;13.40;80.70;;;;;;5156343;27;20070;-55
2021/11/11 05:40:01;;;;;;;7.03;5.07;;;13.40;80.60;;;;;;5155833;27;20039;-56
2021/11/11 05:42:26;;;;;;;6.50;5.53;;;13.50;80.70;;;;;;5155791;27;20043;-57
2021/11/11 05:44:52;;;;;;;5.75;4.93;;;13.50;80.70;;;;;;5156005;27;20064;-57
2021/11/11 05:47:18;;;;;;;6.18;5.22;;;13.50;80.70;;;;;;5137410;27;20047;-56
2021/11/11 05:49:44;;;;;;;5.93;5.32;;;13.40;80.60;;;;;;5156310;27;20046;-58
2021/11/11 05:52:10;;;;;;;5.85;5.22;;;13.50;80.70;;;;;;5136202;27;20117;-56
2021/11/11 05:54:37;;;;;;;7.88;5.05;;;13.50;80.60;;;;;;5156256;27;20494;-55
2021/11/11 05:57:05;;;;;;;8.65;5.80;;;13.50;80.60;;;;;;5155344;27;20395;-56
2021/11/11 05:59:31;;;;;;;8.07;6.35;;;13.40;80.60;;;;;;5156023;27;20497;-56
2021/11/11 06:01:57;;;;;;;6.57;5.55;;;13.50;80.60;;;;;;5156001;27;20117;-57
2021/11/11 06:04:23;;;;;;;5.55;4.80;;;13.50;80.60;;;;;;5155792;27;20077;-56
2021/11/11 06:06:49;;;;;;;6.13;4.95;;;13.40;80.60;;;;;;5155411;27;20053;-55
2021/11/11 06:09:14;;;;;;;6.70;5.15;;;13.50;80.60;;;;;;5155680;27;20035;-57
2021/11/11 06:11:40;;;;;;;7.50;5.15;;;13.40;80.60;;;;;;5136270;27;20605;-56
2021/11/11 06:14:06;;;;;;;7.40;5.47;;;13.50;80.60;;;;;;5155018;27;20059;-58
2021/11/11 06:16:32;;;;;;;7.13;5.63;;;13.50;80.60;;;;;;5155000;27;20041;-54
2021/11/11 06:18:58;;;;;;;6.40;4.82;;;13.50;80.60;;;;;;5137096;27;20038;-56
2021/11/11 06:21:24;;;;;;;6.40;5.43;;;13.40;80.60;;;;;;5155522;27;20111;-57
2021/11/11 06:23:52;;;;;;;6.13;5.07;;;13.50;80.60;;;;;;5155392;27;20046;-58
2021/11/11 06:26:22;;;;;;;5.72;4.63;;;13.40;80.60;;;;;;5155604;27;20044;-56
2021/11/11 06:28:48;;;;;;;7.10;4.80;;;13.40;80.60;;;;;;5135209;27;20051;-54
2021/11/11 06:31:14;;;;;;;6.38;5.25;;;13.50;80.60;;;;;;5155231;27;20482;-58
2021/11/11 06:33:40;;;;;;;6.35;4.72;;;13.50;80.60;;;;;;5136498;27;20042;-57
2021/11/11 06:36:06;;;;;;;5.93;4.97;;;13.50;80.60;;;;;;5154935;27;20043;-56
2021/11/11 06:38:32;;;;;;;6.22;4.85;;;13.40;80.60;;;;;;5154910;27;20039;-52
2021/11/11 06:40:58;;;;;;;7.80;6.22;;;13.40;80.50;;;;;;5154948;27;20058;-58
2021/11/11 06:43:23;;;;;;;6.82;5.22;;;13.40;80.60;;;;;;5154093;27;20522;-59
2021/11/11 06:45:49;;;;;;;5.90;5.30;;;13.50;80.60;;;;;;5155105;27;20113;-57
2021/11/11 06:48:15;;;;;;;7.40;5.45;;;13.40;80.60;;;;;;5154706;27;20045;-56
2021/11/11 06:50:43;;;;;;;5.50;4.88;;;13.40;80.60;;;;;;5154872;27;20045;-55
2021/11/11 06:53:10;;;;;;;7.05;5.78;;;13.50;80.60;;;;;;5154684;27;20050;-55
2021/11/11 06:55:36;;;;;;;6.50;4.80;;;13.50;80.60;;;;;;5154653;27;20042;-56
2021/11/11 06:58:02;;;;;;;6.30;5.15;;;13.50;80.60;;;;;;5154092;27;20483;-56
2021/11/11 07:00:28;;;;;;;7.30;5.47;;;13.40;80.60;;;;;;5153426;27;20065;-56
2021/11/11 07:02:54;;;;;;;7.45;6.30;;;13.50;80.60;;;;;;5153991;27;20043;-55
2021/11/11 07:05:20;;;;;;;7.88;5.47;;;13.50;80.60;;;;;;5153967;27;20027;-58
2021/11/11 07:07:46;;;;;;;6.63;5.78;;;13.40;80.50;;;;;;5154014;27;20038;-58
2021/11/11 07:10:12;;;;;;;6.95;5.40;;;13.50;80.60;;;;;;5153530;27;20039;-57
2021/11/11 07:12:38;;;;;;;7.50;5.35;;;13.50;80.50;;;;;;5135568;27;20065;-57
2021/11/11 07:15:08;;;;;;;8.10;5.18;;;13.50;80.60;;;;;;5154229;27;20142;-56
2021/11/11 07:17:37;;;;;;;6.70;5.35;;;13.50;80.60;;;;;;5154321;27;20165;-55
2021/11/11 07:20:05;;;;;;;8.30;6.05;;;13.40;80.50;;;;;;5154526;27;20117;-57
2021/11/11 07:22:31;;;;;;;8.20;5.95;;;13.40;80.50;;;;;;5154547;27;20043;-55
2021/11/11 07:24:57;;;;;;;7.40;5.95;;;13.40;80.50;;;;;;5154682;27;20169;-56
2021/11/11 07:27:23;;;;;;;6.93;5.53;;;13.40;80.50;;;;;;5135933;27;20053;-58
2021/11/11 07:29:49;;;;;;;7.68;6.22;;;13.40;80.50;;;;;;5154864;27;20811;-56
2021/11/11 07:32:15;;;;;;;9.77;6.45;;;13.40;80.50;;;;;;5153852;27;20040;-56
2021/11/11 07:34:42;;;;;;;6.65;5.40;;;13.40;80.50;;;;;;5154398;27;20398;-56
2021/11/11 07:37:08;;;;;;;7.45;5.93;;;13.50;80.50;;;;;;5135878;27;20051;-58
2021/11/11 07:39:35;;;;;;;6.85;6.15;;;13.40;80.50;;;;;;5154426;27;20095;-58
2021/11/11 07:42:01;;;;;;;6.65;5.78;;;13.50;80.50;;;;;;5154374;27;20447;-58
2021/11/11 07:44:26;;;;;;;6.63;5.95;;;13.50;80.50;;;;;;5154678;27;20056;-59
2021/11/11 07:46:52;;;;;;;7.68;6.45;;;13.40;80.50;;;;;;5135148;27;20055;-58
2021/11/11 07:49:18;;;;;;;7.13;6.38;;;13.50;80.50;;;;;;5135942;27;20386;-57
2021/11/11 07:51:43;;;;;;;6.80;6.07;;;13.50;80.50;;;;;;5154167;27;20046;-57
2021/11/11 07:54:10;;;;;;;7.38;6.13;;;13.50;80.50;;;;;;5153847;27;20085;-56
2021/11/11 07:56:36;;;;;;;7.57;5.97;;;13.40;80.40;;;;;;5154220;27;20410;-56
2021/11/11 07:59:03;;;;;;;6.75;5.85;;;13.50;80.50;;;;;;5134879;27;20042;-55
2021/11/11 08:01:29;;;;;;;7.53;6.25;;;13.40;80.40;;;;;;5135808;27;20089;-58
2021/11/11 08:03:55;;;;;;;7.65;6.70;;;13.40;80.50;;;;;;5153169;27;20074;-57
2021/11/11 08:06:21;;;;;;;8.27;6.50;;;13.50;80.50;;;;;;5153826;27;20083;-56
2021/11/11 08:08:46;;;;;;;7.57;6.25;;;13.50;80.50;;;;;;5135201;27;20046;-57
2021/11/11 08:11:12;;;;;;;7.20;6.50;;;13.50;80.50;;;;;;5153960;27;20026;-56
2021/11/11 08:13:38;;;;;;;7.18;5.70;;;13.40;80.40;;;;;;5135164;27;20053;-55
2021/11/11 08:16:04;;;;;;;7.30;5.90;;;13.50;80.50;;;;;;5137074;27;20072;-58
2021/11/11 08:18:30;;;;;;;8.38;6.68;;;13.50;80.50;;;;;;5157376;27;20043;-58
2021/11/11 08:20:56;;;;;;;7.20;6.45;;;13.50;80.50;;;;;;5157099;27;20031;-57
2021/11/11 08:23:22;;;;;;;8.13;6.60;;;13.50;80.50;;;;;;5138634;27;20074;-56
2021/11/11 08:25:49;;;;;;;7.75;6.65;;;13.50;80.40;;;;;;5138531;27;20169;-55
2021/11/11 08:28:20;;;;;;;7.68;6.47;;;13.50;80.50;;;;;;5138603;27;20051;-49
2021/11/11 08:30:47;;;;;;;6.97;5.95;;;13.50;80.50;;;;;;5138254;27;20047;-55
2021/11/11 08:33:14;;;;;;;6.82;5.78;;;13.50;80.50;;;;;;5157237;27;20042;-55
2021/11/11 08:35:41;;;;;;;6.72;5.72;;;13.40;80.40;;;;;;5156066;27;20451;-56
2021/11/11 08:38:07;;;;;;;6.32;5.15;;;13.40;80.40;;;;;;5157332;27;20084;-59
2021/11/11 08:40:33;;;;;;;6.57;5.88;;;13.50;80.40;;;;;;5157316;27;20050;-57
2021/11/11 08:43:00;;;;;;;6.90;5.40;;;13.50;80.50;;;;;;5157272;27;20589;-57
2021/11/11 08:45:28;;;;;;;6.47;5.55;;;13.40;80.40;;;;;;5138646;27;20038;-56
2021/11/11 08:47:55;;;;;;;6.68;5.70;;;13.40;80.40;;;;;;5157352;27;20035;-58
2021/11/11 08:50:23;;;;;;;6.13;5.50;;;13.50;80.50;;;;;;5137995;27;20050;-58
2021/11/11 08:52:54;;;;;;;8.80;6.32;;;13.40;80.40;;;;;;5157377;27;20053;-57
2021/11/11 08:55:23;;;;;;;7.80;5.30;;;13.50;80.40;;;;;;5157298;27;20050;-58
2021/11/11 08:57:49;;;;;;;7.95;6.32;;;13.50;80.40;;;;;;5156808;27;20035;-58
2021/11/11 09:00:20;;;;;;;6.60;5.30;;;13.50;80.50;;;;;;5156897;27;20045;-56
2021/11/11 09:02:49;;;;;;;6.25;5.55;;;13.40;80.40;;;;;;5138554;27;20542;-59
2021/11/11 09:05:17;;;;;;;6.90;5.78;;;13.50;80.50;;;;;;5151533;27;20045;-50
2021/11/11 09:07:43;;;;;;;8.50;6.03;;;13.50;80.50;;;;;;5130057;27;20042;-54
2021/11/11 09:10:12;;;;;;;8.10;5.95;;;13.50;80.50;;;;;;5156703;27;20050;-53
2021/11/11 09:12:38;;;;;;;8.45;6.40;;;13.50;80.50;;;;;;5136716;27;20513;-52
2021/11/11 09:15:08;;;;;;;6.43;5.72;;;13.50;80.50;;;;;;5152025;27;20153;-53
2021/11/11 09:17:34;;;;;;;7.07;5.68;;;13.50;80.50;;;;;;5151888;27;20034;-45
2021/11/11 09:20:01;;;;;;;6.72;5.65;;;13.40;80.50;;;;;;5133793;27;20041;-57
2021/11/11 09:22:27;;;;;;;6.28;5.50;;;13.50;80.50;;;;;;5133506;27;20682;-52
2021/11/11 09:24:53;;;;;;;6.00;5.40;;;13.50;80.50;;;;;;5133981;27;20047;-48
2021/11/11 09:27:20;;;;;;;6.88;5.68;;;13.50;80.50;;;;;;5151843;27;20050;-52
2021/11/11 09:29:46;;;;;;;8.65;5.57;;;13.40;80.50;;;;;;5151642;27;20126;-54
2021/11/11 09:32:11;;;;;;;7.22;5.40;;;13.50;80.50;;;;;;5133746;27;20138;-53
2021/11/11 09:34:37;;;;;;;7.35;5.80;;;13.40;80.40;;;;;;5152488;27;20414;-53
2021/11/11 09:37:03;;;;;;;6.03;5.35;;;13.50;80.50;;;;;;5151879;27;20034;-52
2021/11/11 09:39:29;;;;;;;7.95;6.30;;;13.50;80.50;;;;;;5133220;27;20043;-56
2021/11/11 09:41:58;;;;;;;6.57;5.45;;;13.40;80.40;;;;;;5152022;27;20050;-47
2021/11/11 09:44:25;;;;;;;7.13;5.53;;;13.50;80.40;;;;;;5133357;27;20055;-54
2021/11/11 09:46:53;;;;;;;7.22;5.88;;;13.50;80.50;;;;;;5133033;27;20054;-53
2021/11/11 09:49:20;;;;;;;8.25;6.10;;;13.40;80.40;;;;;;5151758;27;20464;-51
2021/11/11 09:51:47;;;;;;;6.93;6.03;;;13.60;80.50;;;;;;5132461;27;20058;-55
2021/11/11 09:59:26;;;;;;;7.00;5.43;;;13.50;80.40;;;;;;5155966;27;20047;-57
2021/11/11 10:01:54;;;;;;;8.13;5.93;;;13.40;80.40;;;;;;5155443;27;20121;-56
2021/11/11 10:04:20;;;;;;;7.60;5.95;;;13.40;80.40;;;;;;5155263;27;20031;-56
2021/11/11 10:06:46;;;;;;;6.65;5.57;;;13.50;80.50;;;;;;5155343;27;20046;-58
2021/11/11 10:09:20;;;;;;;7.03;5.97;;;13.50;80.50;;;;;;5154865;27;20038;-47
2021/11/11 10:11:51;;;;;;;7.65;5.90;;;13.50;80.50;;;;;;5155455;27;20117;-58
2021/11/11 10:14:27;;;;;;;34.88;24.80;;;13.50;80.40;;;;;;5155174;27;20046;-67
2021/11/11 10:16:59;;;;;;;15.68;11.90;;;13.50;80.90;;;;;;5155668;27;20035;-70
2021/11/11 10:19:27;;;;;;;16.80;11.23;;;13.40;80.90;;;;;;5155578;27;20398;-69
2021/11/11 10:22:04;;;;;;;13.98;10.80;;;13.40;81.00;;;;;;5155496;27;20106;-65
2021/11/11 10:25:00;;;;;;;14.05;10.95;;;13.40;80.90;;;;;;5135455;27;20063;-73
2021/11/11 10:30:05;;;;;;;15.07;11.00;;;13.40;80.90;;;;;;5034197;28;20053;-63
2021/11/11 10:32:41;;;;;;;14.32;10.68;;;13.40;81.00;;;;;;5051045;28;20053;-70
2021/11/11 10:35:17;;;;;;;13.27;10.27;;;13.40;80.90;;;;;;5045433;28;20041;-64
2021/11/11 10:38:16;;;;;;;15.38;11.00;;;13.40;80.80;;;;;;5059189;28;20045;-69
2021/11/11 10:40:45;;;;;;;16.13;11.10;;;13.40;80.70;;;;;;5057556;28;20556;-72
2021/11/11 10:43:22;;;;;;;15.10;10.75;;;13.30;80.80;;;;;;5051034;28;20041;-73
2021/11/11 10:45:50;;;;;;;15.40;10.57;;;13.40;80.80;;;;;;5050829;28;20526;-73
2021/11/11 10:48:18;;;;;;;15.73;10.73;;;13.40;80.80;;;;;;5038790;28;20132;-70
2021/11/11 10:50:46;;;;;;;14.77;10.63;;;13.40;80.80;;;;;;5031599;28;20583;-75
2021/11/11 10:53:18;;;;;;;16.33;11.38;;;13.40;80.70;;;;;;5039374;28;20532;-77
2021/11/11 10:55:50;;;;;;;24.38;18.45;;;13.40;80.70;;;;;;5049225;28;20033;-55
2021/11/11 10:58:19;;;;;;;21.65;14.25;;;13.40;81.20;;;;;;5049517;28;20063;-61
2021/11/11 11:00:56;;;;;;;18.05;13.77;;;13.40;81.40;;;;;;5050215;28;20497;-56
2021/11/11 11:03:35;;;;;;;18.35;13.77;;;13.40;81.50;;;;;;5059387;27;20044;-48
2021/11/11 11:06:01;;;;;;;19.10;13.73;;;13.40;81.70;;;;;;5153860;27;20039;-58
2021/11/11 11:08:40;;;;;;;18.35;13.80;;;13.30;81.60;;;;;;5153960;27;20474;-47
2021/11/11 11:11:41;;;;;;;18.95;14.68;;;13.40;81.60;;;;;;5154821;27;20118;-54
2021/11/11 11:14:24;;;;;;;17.45;13.15;;;13.40;81.60;;;;;;5143384;27;20058;-66
2021/11/11 11:16:49;;;;;;;18.17;13.73;;;13.30;81.60;;;;;;5137422;27;20094;-49
2021/11/11 11:19:18;;;;;;;17.65;13.73;;;13.30;81.60;;;;;;5141768;27;20475;-60
2021/11/11 11:21:50;;;;;;;17.83;13.57;;;13.40;81.60;;;;;;5135249;27;20054;-53
2021/11/11 11:24:25;;;;;;;17.35;13.57;;;13.40;81.50;;;;;;5134213;27;20039;-55
2021/11/11 11:27:00;;;;;;;18.13;12.90;;;13.40;81.50;;;;;;5154688;27;20394;-48
2021/11/11 11:29:35;;;;;;;18.52;13.57;;;13.30;81.50;;;;;;5152745;27;20042;-51
2021/11/11 11:35:03;;;;;;;17.48;12.93;;;13.40;81.60;;;;;;5052402;28;20041;-52
2021/11/11 11:37:32;;;;;;;17.90;12.40;;;13.40;81.50;;;;;;5070160;28;20744;-54
2021/11/11 11:40:09;;;;;;;16.75;12.10;;;13.40;81.50;;;;;;5069821;28;20048;-64
2021/11/11 11:42:38;;;;;;;16.73;11.95;;;13.40;81.50;;;;;;5070345;28;20485;-56
2021/11/11 11:45:11;;;;;;;16.27;12.70;;;13.40;81.50;;;;;;5069758;28;20515;-52
2021/11/11 11:48:08;;;;;;;15.32;11.60;;;13.40;81.40;;;;;;5070330;28;20094;-54
2021/11/11 11:50:38;;;;;;;15.77;12.00;;;13.40;81.50;;;;;;5071875;28;20044;-60
2021/11/11 11:53:07;;;;;;;15.27;12.10;;;13.40;81.40;;;;;;5073787;28;20053;-52
2021/11/11 11:55:43;;;;;;;16.45;12.43;;;13.40;81.40;;;;;;5074135;28;20059;-52
2021/11/11 12:14:31;;;;;;;12.77;10.48;;;13.40;81.40;;;;;;5136416;27;20051;-55
2021/11/11 12:40:40;;;;;;;14.73;11.02;;;13.40;81.40;;;;;;5013365;28;20056;-59
2021/11/11 12:43:20;;;;;;;14.75;10.68;;;13.40;81.40;;;;;;5013243;28;20056;-60
2021/11/11 12:45:46;;;;;;;14.10;11.38;;;13.40;81.30;;;;;;5020567;28;20521;-61
2021/11/11 12:48:13;;;;;;;12.55;9.68;;;13.50;81.40;;;;;;5031416;28;20091;-59
2021/11/11 12:50:45;;;;;;;13.80;10.25;;;13.50;81.40;;;;;;5032424;28;20442;-65
2021/11/11 12:53:14;;;;;;;12.48;10.00;;;13.50;81.40;;;;;;5049539;28;20053;-64
2021/11/11 12:55:49;;;;;;;12.73;10.23;;;13.50;81.40;;;;;;5052530;28;20045;-66
2021/11/11 12:58:17;;;;;;;12.77;10.63;;;13.40;81.30;;;;;;5082404;28;20149;-63
2021/11/11 13:00:51;;;;;;;12.82;9.73;;;13.50;81.30;;;;;;5073051;28;20080;-61
2021/11/11 13:03:19;;;;;;;13.25;10.13;;;13.40;81.30;;;;;;5070905;28;20076;-54
2021/11/11 13:05:57;;;;;;;11.57;9.15;;;13.50;81.30;;;;;;5072879;28;20164;-54
2021/11/11 13:08:42;;;;;;;12.50;9.30;;;13.40;81.30;;;;;;5080242;28;20032;-52
2021/11/11 13:11:09;;;;;;;11.10;9.38;;;13.40;81.30;;;;;;5109277;27;20051;-53
2021/11/11 13:13:36;;;;;;;11.95;9.13;;;13.40;81.30;;;;;;5131214;27;20059;-50
2021/11/11 13:16:18;;;;;;;11.82;8.95;;;13.50;81.30;;;;;;5143726;27;20515;-46
2021/11/11 13:18:48;;;;;;;10.27;8.95;;;13.50;81.30;;;;;;5153674;27;20087;-52
2021/11/11 13:21:21;;;;;;;11.80;8.90;;;13.40;81.30;;;;;;5155855;27;20038;-51
2021/11/11 13:24:51;;;;;;;12.10;9.45;;;13.40;81.20;;;;;;5156001;27;20053;-52
2021/11/11 13:28:31;;;;;;;12.40;9.50;;;13.50;81.20;;;;;;5154652;27;20062;-52
2021/11/11 15:14:17;;;;;;;13.20;9.15;;;13.50;81.30;;;;;;5069600;28;20381;-49
2021/11/11 15:18:42;;;;;;;14.40;10.48;;;13.50;81.30;;;;;;5070383;28;20044;-63
2021/11/11 16:02:37;;;;;;;13.00;9.75;;;13.50;81.30;;;;;;5065418;28;20048;-55
2021/11/11 16:26:23;;;;;;;12.75;9.23;;;13.50;81.30;;;;;;5108809;28;20051;-53
2021/11/11 16:28:53;;;;;;;10.43;8.40;;;13.60;81.30;;;;;;5108247;28;20074;-57
2021/11/11 16:31:21;;;;;;;12.25;9.55;;;13.60;81.30;;;;;;5108505;28;20434;-55
2021/11/11 16:33:48;;;;;;;10.90;8.77;;;13.60;81.30;;;;;;5105401;28;20055;-55
2021/11/11 16:36:14;;;;;;;10.77;8.45;;;13.60;81.30;;;;;;5108409;28;20047;-56
2021/11/11 16:38:41;;;;;;;11.30;8.90;;;13.50;81.20;;;;;;5112152;28;20050;-64
2021/11/11 16:41:07;;;;;;;10.60;8.65;;;13.60;81.30;;;;;;5112328;28;20073;-55
2021/11/11 16:43:35;;;;;;;10.45;9.07;;;13.60;81.30;;;;;;5110141;28;20138;-67
2021/11/11 16:46:01;;;;;;;11.57;9.43;;;13.60;81.30;;;;;;5112667;27;20039;-65
2021/11/11 16:48:27;;;;;;;10.05;8.50;;;13.60;81.30;;;;;;5115804;28;20040;-56
2021/11/11 16:50:54;;;;;;;9.88;8.25;;;13.60;81.30;;;;;;5113426;28;20155;-57